DW9768 Stavanger NO current weather conditions

sailwx.info

Wind from 314 at 5 knots gusting 9

Air temperature 5.6° C
Dewpoint 2.9° C

Last reported at 2020-Feb-19 01:00 UTC.
Time now 2020-Feb-19 01:50 UTC

Location: N 59°02' E 005°39'.
View on Google Maps.

See reports from other nearby stations

  
Tides and Currents Weather Stations Pressure Air Temp Water Temp Dewpoint Dewpoint Depression Visibility Wind Speed Wind Dir Waves Ship Positions
date/time (UTC)wind fromknots sea level pressurealtimeterstation pressurevisibilityair tempwater tempwave heightnotes
2020-Feb-19 01:00 314 5 gusting 9 5.6
2020-Feb-19 00:45 285 7 gusting 11 5.6
2020-Feb-19 00:30 286 2 gusting 7 5.6
2020-Feb-19 00:15 277 6 gusting 9 5.6
2020-Feb-19 00:00 281 4 gusting 8 5.6
2020-Feb-18 23:45 319 0 gusting 5 4.4
2020-Feb-18 23:30 315 0 gusting 6 4.4
2020-Feb-18 23:15 248 4 gusting 6 4.4
2020-Feb-18 23:00 223 2 gusting 6 3.9
2020-Feb-18 22:45 200 3 gusting 4 4.4
2020-Feb-18 22:30 181 0 gusting 5 3.9
2020-Feb-18 22:15 192 3 gusting 5 4.4
2020-Feb-18 22:00 211 4.4
2020-Feb-18 21:45 210 2 gusting 5 4.4
2020-Feb-18 21:30 227 3 gusting 6 4.4
2020-Feb-18 21:15 271 9 gusting 24 5.0
2020-Feb-18 21:00 270 5 gusting 6 5.6
2020-Feb-18 20:30 248 6 gusting 7 5.0
2020-Feb-18 20:16 250 6 gusting 8 5.6
2020-Feb-18 20:01 264 6 gusting 9 5.6
2020-Feb-18 19:46 312 6 gusting 13 5.0
2020-Feb-18 19:31 309 8 gusting 15 5.0
2020-Feb-18 19:16 227 0 gusting 4 5.0
2020-Feb-18 19:01 286 3 gusting 7 5.0
2020-Feb-18 18:47 294 3 gusting 11 5.0
2020-Feb-18 18:31 260 6 gusting 11 6.1
2020-Feb-18 18:16 269 7 gusting 11 6.1
2020-Feb-18 18:01 276 9 gusting 14 6.1
2020-Feb-18 17:47 280 11 gusting 13 6.1
2020-Feb-18 17:31 281 10 gusting 14 6.1
2020-Feb-18 17:16 292 9 gusting 13 6.1
2020-Feb-18 17:01 286 9 gusting 13 5.6
2020-Feb-18 16:46 292 7 gusting 16 5.0
2020-Feb-18 16:31 282 11 gusting 16 6.1
2020-Feb-18 16:17 271 14 gusting 24 5.0
2020-Feb-18 16:01 310 7 gusting 13 6.1
2020-Feb-18 15:47 286 9 gusting 13 6.1
2020-Feb-18 15:31 302 10 gusting 22 5.6
2020-Feb-18 15:16 279 13 gusting 19 6.1
2020-Feb-18 15:01 288 13 gusting 25 4.4
2020-Feb-18 14:46 287 15 gusting 19 6.1
2020-Feb-18 14:31 284 15 gusting 26 6.1
2020-Feb-18 14:16 292 12 gusting 19 6.1
2020-Feb-18 14:01 313 13 gusting 24 6.7
2020-Feb-18 13:47 264 17 gusting 21 6.7
2020-Feb-18 13:31 280 8 gusting 11 5.6
2020-Feb-18 13:16 285 6 gusting 11 4.4
2020-Feb-18 13:01 332 7 gusting 17 4.4
2020-Feb-18 12:46 289 11 gusting 15 6.1
2020-Feb-18 12:30 289 10 gusting 16 5.6
2020-Feb-18 12:16 290 14 gusting 20 5.6
2020-Feb-18 12:01 277 16 gusting 26 6.1
2020-Feb-18 11:45 274 13 gusting 17 6.7
2020-Feb-18 11:31 273 14 gusting 19 6.1
2020-Feb-18 11:15 276 12 gusting 16 6.1
2020-Feb-18 11:00 281 18 gusting 22 6.7
2020-Feb-18 10:46 281 11 gusting 18 6.7
2020-Feb-18 10:31 288 20 gusting 26 5.6
2020-Feb-18 10:16 277 16 gusting 21 6.7
2020-Feb-18 10:01 279 17 gusting 23 6.7
2020-Feb-18 09:46 284 9 gusting 17 5.6
2020-Feb-18 09:30 302 7 gusting 13 6.1
2020-Feb-18 09:15 295 15 gusting 21 6.7
2020-Feb-18 09:00 286 12 gusting 19 6.7
2020-Feb-18 08:45 300 13 gusting 19 6.1
2020-Feb-18 08:30 276 13 gusting 25 5.6
2020-Feb-18 08:15 284 7 gusting 17 6.1
2020-Feb-18 08:00 285 13 gusting 20 6.7
2020-Feb-18 07:45 280 12 gusting 16 6.7
2020-Feb-18 07:30 288 11 gusting 28 5.6
2020-Feb-18 07:16 275 18 gusting 32 6.7
2020-Feb-18 07:00 296 18 gusting 25 6.7
2020-Feb-18 06:45 307 12 gusting 21 6.7
2020-Feb-18 06:30 288 14 gusting 21 6.7
2020-Feb-18 06:15 304 12 gusting 21 6.7
2020-Feb-18 06:01 282 13 gusting 24 6.7
2020-Feb-18 05:46 292 13 gusting 21 6.7
2020-Feb-18 05:32 281 9 gusting 15 6.1
2020-Feb-18 05:17 301 6 gusting 11 5.6
2020-Feb-18 05:02 342 7 gusting 13 5.6
2020-Feb-18 04:47 309 9 gusting 16 5.0
2020-Feb-18 04:31 331 10 gusting 14 5.0
2020-Feb-18 04:17 345 13 gusting 24 5.0
2020-Feb-18 04:02 285 15 gusting 22 7.2
2020-Feb-18 03:46 279 15 gusting 25 7.2
2020-Feb-18 03:31 313 10 gusting 18 6.7
2020-Feb-18 03:16 319 13 gusting 26 6.1
2020-Feb-18 03:01 276 15 gusting 21 7.2
2020-Feb-18 02:45 275 13 gusting 22 7.2
2020-Feb-18 02:30 275 15 gusting 21 7.2
2020-Feb-18 02:16 275 14 gusting 19 7.2
2020-Feb-18 02:01 271 14 gusting 19 7.2
2020-Feb-18 01:47 275 13 gusting 19 6.7
2020-Feb-18 01:31 277 16 gusting 27 6.1
2020-Feb-18 01:16 294 13 gusting 18 7.2
2020-Feb-18 01:01 273 12 gusting 18 7.2
2020-Feb-18 00:45 277 14 gusting 21 7.2
2020-Feb-18 00:30 279 13 gusting 18 7.2
2020-Feb-18 00:16 275 15 gusting 27 6.7
2020-Feb-18 00:00 290 13 gusting 19 7.2
2020-Feb-17 23:46 276 13 gusting 17 7.2
2020-Feb-17 23:30 273 14 gusting 21 7.2
2020-Feb-17 23:15 285 9 gusting 18 7.8
2020-Feb-17 23:00 275 16 gusting 23 7.8
2020-Feb-17 22:45 277 13 gusting 19 7.2
2020-Feb-17 22:30 273 12 gusting 17 7.8
2020-Feb-17 22:15 259 11 gusting 15 7.8
2020-Feb-17 22:00 279 10 gusting 16 7.8
2020-Feb-17 21:45 255 12 gusting 15 7.8
2020-Feb-17 21:30 267 13 gusting 22 7.8
2020-Feb-17 21:15 271 13 gusting 20 7.8
2020-Feb-17 21:00 269 17 gusting 22 7.8
2020-Feb-17 20:47 275 15 gusting 21 7.8
2020-Feb-17 20:45 282 15 gusting 21 7.8
2020-Feb-17 20:31 277 15 gusting 22 7.8
2020-Feb-17 20:16 285 17 gusting 22 7.8
2020-Feb-17 20:01 271 17 gusting 24 7.8
2020-Feb-17 19:46 265 14 gusting 20 7.8
2020-Feb-17 19:31 268 15 gusting 24 7.8
2020-Feb-17 19:16 269 18 gusting 26 7.8
2020-Feb-17 19:00 265 18 gusting 26 7.8
2020-Feb-17 18:46 271 19 gusting 26 7.8
2020-Feb-17 18:30 277 19 gusting 26 7.8
2020-Feb-17 18:16 278 13 gusting 23 7.2
2020-Feb-17 18:00 284 11 gusting 18 6.7
2020-Feb-17 17:46 293 12 gusting 26 7.2
2020-Feb-17 17:31 271 18 gusting 26 7.8
2020-Feb-17 17:15 277 21 gusting 27 7.8
2020-Feb-17 17:00 274 21 gusting 30 8.3
2020-Feb-17 16:46 272 19 gusting 26 7.8
2020-Feb-17 16:31 290 19 gusting 29 7.8
2020-Feb-17 16:00 275 15 gusting 23 7.8
2020-Feb-17 15:45 285 13 gusting 18 6.7
2020-Feb-17 15:31 304 13 gusting 33 6.7
2020-Feb-17 15:15 281 11 gusting 24 7.8
2020-Feb-17 15:00 276 21 gusting 28 8.3
2020-Feb-17 14:45 296 19 gusting 31 8.3
2020-Feb-17 14:30 282 21 gusting 32 8.3
2020-Feb-17 14:15 273 24 gusting 30 8.3
2020-Feb-17 14:00 264 20 gusting 32 8.3
2020-Feb-17 13:45 265 20 gusting 27 8.3
2020-Feb-17 13:30 271 23 gusting 31 8.3
2020-Feb-17 13:16 255 24 gusting 33 8.3
2020-Feb-17 13:02 277 22 gusting 32 8.3
2020-Feb-17 12:46 279 23 gusting 31 8.3
2020-Feb-17 12:31 275 24 gusting 34 8.3
2020-Feb-17 12:16 255 26 gusting 39 8.3
2020-Feb-17 12:00 267 23 gusting 35 8.3
2020-Feb-17 11:46 261 26 gusting 34 7.8
2020-Feb-17 11:30 269 26 gusting 39 7.8
2020-Feb-17 11:16 267 26 gusting 40 7.8
2020-Feb-17 11:00 259 27 gusting 34 7.8
2020-Feb-17 10:47 275 28 gusting 39 7.8
2020-Feb-17 10:31 257 25 gusting 36 7.8
2020-Feb-17 10:15 278 26 gusting 37 7.8
2020-Feb-17 10:01 253 24 gusting 33 7.8
2020-Feb-17 09:45 279 25 gusting 34 7.8
2020-Feb-17 09:30 252 23 gusting 32 7.8
2020-Feb-17 09:15 241 22 gusting 31 7.8
2020-Feb-17 09:00 251 21 gusting 30 7.8
2020-Feb-17 08:45 257 23 gusting 36 7.8
2020-Feb-17 08:30 250 21 gusting 32 7.8
2020-Feb-17 08:15 259 21 gusting 33 7.8
2020-Feb-17 08:00 227 20 gusting 29 7.8
2020-Feb-17 07:45 250 22 gusting 32 7.8
2020-Feb-17 07:30 246 26 gusting 36 7.8
2020-Feb-17 07:15 250 22 gusting 31 7.8
2020-Feb-17 07:00 247 25 gusting 35 7.8
2020-Feb-17 06:45 245 27 gusting 38 7.8
2020-Feb-17 06:30 246 21 gusting 30 7.2
2020-Feb-17 06:15 248 20 gusting 27 7.2
2020-Feb-17 06:00 255 23 gusting 34 7.2
2020-Feb-17 05:45 252 24 gusting 30 7.2
2020-Feb-17 05:30 275 25 gusting 34 6.7
2020-Feb-17 05:16 250 25 gusting 36 7.2
2020-Feb-17 05:02 257 21 gusting 35 7.2
2020-Feb-17 04:47 253 21 gusting 29 7.2
2020-Feb-17 04:32 242 21 gusting 32 7.2
2020-Feb-17 04:17 253 21 gusting 32 7.2
2020-Feb-17 03:47 267 22 gusting 33 7.2
2020-Feb-17 03:31 245 21 gusting 29 7.2
2020-Feb-17 03:16 219 26 gusting 38 7.2
2020-Feb-17 03:01 257 23 gusting 30 7.2
2020-Feb-17 02:46 261 23 gusting 32 7.2
2020-Feb-17 02:31 254 19 gusting 30 7.2
2020-Feb-17 02:16 252 22 gusting 30 7.2
2020-Feb-17 02:01 237 21 gusting 26 7.2
2020-Feb-17 01:46 253 21 gusting 29 7.2
2020-Feb-17 01:31 257 26 gusting 33 7.2
2020-Feb-17 01:16 259 20 gusting 31 7.8
2020-Feb-17 01:01 262 22 gusting 29 7.8